createdAt,value
2022-10-11T00:02:48.010Z,98674.97
2022-10-11T00:32:52.157Z,98713.81
2022-10-11T01:02:56.452Z,98727.41
2022-10-11T01:33:08.380Z,98752.22
2022-10-11T03:04:28.295Z,98783.75
2022-10-11T03:34:32.694Z,98803.84
2022-10-11T04:04:37.968Z,98817.75
2022-10-11T04:34:42.653Z,98852.75
2022-10-11T05:04:46.994Z,98865.78
2022-10-11T05:34:51.093Z,98888.31
2022-10-11T06:04:55.188Z,98920.38
2022-10-11T06:34:59.330Z,98954.56
2022-10-11T07:05:03.746Z,98988.50
2022-10-11T07:35:09.237Z,99010.72
2022-10-11T08:05:13.409Z,99024.69
2022-10-11T08:35:17.905Z,99028.69
2022-10-11T09:05:23.166Z,99048.03
2022-10-11T09:35:30.117Z,99052.34
2022-10-11T10:05:36.927Z,99037.28
2022-10-11T10:35:44.573Z,99015.63
2022-10-11T11:05:56.184Z,99009.66
2022-10-11T11:36:05.315Z,98986.06
2022-10-11T12:06:24.979Z,98977.16
2022-10-11T12:36:40.896Z,98943.91
2022-10-11T13:06:49.001Z,98922.28
2022-10-11T13:36:57.836Z,98897.75
2022-10-11T14:07:03.806Z,98885.41
2022-10-11T14:37:08.146Z,98887.16
2022-10-11T15:07:13.567Z,98872.53
2022-10-11T15:37:17.851Z,98855.06
2022-10-11T16:07:22.248Z,98864.81
2022-10-11T16:37:26.740Z,98859.72
2022-10-11T17:07:32.322Z,98863.50
2022-10-11T17:37:36.622Z,98874.72
2022-10-11T18:07:41.066Z,98870.63
2022-10-11T18:37:45.219Z,98876.25
2022-10-11T19:07:49.397Z,98869.81
2022-10-11T19:37:54.707Z,98870.84
2022-10-11T20:07:58.965Z,98884.09
2022-10-11T20:38:03.208Z,98876.09
2022-10-11T21:08:07.823Z,98864.44
2022-10-11T21:38:13.177Z,98852.56
2022-10-11T22:08:18.694Z,98848.56
2022-10-11T22:38:22.906Z,98840.13
2022-10-11T23:08:27.311Z,98825.44
2022-10-11T23:38:31.549Z,98844.81
